Time;durP1;ratioP1;P1;durP2;ratioP2;P2;SDS_P1;SDS_P2;PMS_P1;PMS_P2;Temp;Humidity;BMP_temperature;BMP_pressure;BME280_temperature;BME280_humidity;BME280_pressure;Samples;Min_cycle;Max_cycle;Signal;HPM_P1;HPM_P2
2021/05/05 00:01:05;;;;;;;3.57;1.60;;;9.80;99.90;;;;;;5026496;28;20177;-69
2021/05/05 00:03:32;;;;;;;2.63;1.40;;;9.90;99.90;;;;;;5027033;28;20220;-68
2021/05/05 00:05:58;;;;;;;1.60;1.50;;;9.90;99.90;;;;;;5025626;28;20459;-70
2021/05/05 00:08:24;;;;;;;1.53;1.30;;;9.80;99.90;;;;;;5024847;28;20561;-70
2021/05/05 00:10:51;;;;;;;1.50;1.40;;;9.80;99.90;;;;;;5024928;28;20531;-69
2021/05/05 00:13:17;;;;;;;1.77;1.43;;;9.80;99.90;;;;;;5026307;28;20455;-70
2021/05/05 00:15:43;;;;;;;5.67;1.50;;;9.80;99.90;;;;;;5025135;28;20438;-69
2021/05/05 00:18:09;;;;;;;3.80;1.60;;;9.90;99.90;;;;;;5054723;28;20930;-70
2021/05/05 00:20:35;;;;;;;1.40;1.30;;;9.80;99.90;;;;;;5029520;28;20442;-69
2021/05/05 00:23:01;;;;;;;2.67;2.43;;;9.80;99.90;;;;;;5026681;28;20222;-69
2021/05/05 00:25:27;;;;;;;2.53;1.53;;;9.80;99.90;;;;;;5032180;28;20430;-69
2021/05/05 00:27:53;;;;;;;3.73;1.47;;;9.80;99.90;;;;;;5026478;28;20223;-69
2021/05/05 00:30:20;;;;;;;1.60;1.33;;;9.80;99.90;;;;;;5030773;28;20200;-68
2021/05/05 00:32:46;;;;;;;2.03;1.50;;;9.70;99.90;;;;;;5025536;28;20647;-69
2021/05/05 00:35:13;;;;;;;2.10;1.83;;;9.70;99.90;;;;;;5027922;28;20436;-69
2021/05/05 00:37:39;;;;;;;2.80;1.40;;;9.70;99.90;;;;;;5030919;28;20188;-69
2021/05/05 00:40:06;;;;;;;4.50;2.17;;;9.70;99.90;;;;;;5032475;28;20496;-68
2021/05/05 00:42:32;;;;;;;1.83;1.37;;;9.80;99.90;;;;;;5029385;28;20473;-68
2021/05/05 00:45:06;;;;;;;3.00;1.70;;;9.70;99.90;;;;;;5028459;28;20439;-70
2021/05/05 00:47:32;;;;;;;4.20;1.60;;;9.70;99.90;;;;;;5031049;28;20293;-69
2021/05/05 00:49:57;;;;;;;2.77;1.40;;;9.70;99.90;;;;;;5030185;28;21056;-70
2021/05/05 00:52:24;;;;;;;3.10;1.80;;;9.70;99.90;;;;;;5030423;28;20200;-70
2021/05/05 00:54:50;;;;;;;9.20;1.70;;;9.70;99.90;;;;;;5028008;28;20436;-68
2021/05/05 00:57:16;;;;;;;1.70;1.60;;;9.60;99.90;;;;;;5032251;28;20445;-69
2021/05/05 00:59:42;;;;;;;2.07;1.87;;;9.60;99.90;;;;;;5028215;28;20439;-68
2021/05/05 01:02:08;;;;;;;6.47;1.80;;;9.60;99.90;;;;;;5027054;28;21048;-71
2021/05/05 01:04:34;;;;;;;3.73;1.57;;;9.50;99.90;;;;;;5028361;28;20214;-70
2021/05/05 01:07:00;;;;;;;1.70;1.40;;;9.50;99.90;;;;;;5031347;28;20801;-70
2021/05/05 01:09:27;;;;;;;3.53;1.70;;;9.50;99.90;;;;;;5025840;28;20681;-70
2021/05/05 01:11:54;;;;;;;4.03;2.00;;;9.50;99.90;;;;;;5028107;28;20214;-70
2021/05/05 01:14:21;;;;;;;3.20;1.80;;;9.50;99.90;;;;;;5031360;28;20450;-69
2021/05/05 01:16:46;;;;;;;4.53;1.60;;;9.50;99.90;;;;;;5024919;28;20475;-69
2021/05/05 01:19:12;;;;;;;4.43;2.03;;;9.50;99.90;;;;;;5027513;28;20534;-71
2021/05/05 01:21:37;;;;;;;2.97;1.97;;;9.50;99.90;;;;;;5030549;28;20225;-68
2021/05/05 01:24:05;;;;;;;1.70;1.47;;;9.50;99.90;;;;;;5025731;28;20220;-71
2021/05/05 01:26:31;;;;;;;4.20;1.73;;;9.50;99.90;;;;;;5024099;28;20568;-68
2021/05/05 01:28:58;;;;;;;3.97;1.70;;;9.60;99.90;;;;;;5026389;28;20440;-68
2021/05/05 01:31:24;;;;;;;3.50;1.80;;;9.50;99.90;;;;;;5024962;28;20223;-68
2021/05/05 01:33:51;;;;;;;3.13;1.87;;;9.50;99.90;;;;;;5028602;28;20431;-70
2021/05/05 01:36:18;;;;;;;4.67;2.07;;;9.40;99.90;;;;;;5024613;28;20451;-69
2021/05/05 01:38:46;;;;;;;6.57;2.47;;;9.50;99.90;;;;;;5027866;28;20431;-69
2021/05/05 01:41:12;;;;;;;2.70;1.77;;;9.50;99.90;;;;;;5028995;28;20446;-69
2021/05/05 01:43:38;;;;;;;4.40;2.00;;;9.50;99.90;;;;;;5026887;28;20455;-68
2021/05/05 01:46:04;;;;;;;4.53;1.80;;;9.50;99.90;;;;;;5025778;28;20688;-69
2021/05/05 01:48:29;;;;;;;5.67;2.10;;;9.50;99.90;;;;;;5026535;28;20921;-69
2021/05/05 01:50:55;;;;;;;6.57;1.67;;;9.40;99.90;;;;;;5025440;28;20443;-69
2021/05/05 01:53:21;;;;;;;2.93;1.87;;;9.40;99.90;;;;;;5027018;28;20219;-70
2021/05/05 01:55:47;;;;;;;3.23;2.00;;;9.40;99.90;;;;;;5027706;28;20212;-68
2021/05/05 01:58:13;;;;;;;3.33;2.90;;;9.40;99.90;;;;;;5025714;28;20261;-69
2021/05/05 02:00:39;;;;;;;3.53;1.90;;;9.30;99.90;;;;;;5028936;28;20431;-69
2021/05/05 02:03:05;;;;;;;4.07;2.37;;;9.20;99.90;;;;;;5029079;28;20470;-67
2021/05/05 02:05:32;;;;;;;3.93;1.90;;;9.20;99.90;;;;;;5027112;28;21003;-68
2021/05/05 02:07:57;;;;;;;7.13;1.90;;;9.10;99.90;;;;;;5027683;28;20454;-70
2021/05/05 02:10:23;;;;;;;3.77;1.93;;;9.10;99.90;;;;;;5028486;28;20522;-68
2021/05/05 02:12:49;;;;;;;2.33;1.70;;;9.10;99.90;;;;;;5025993;28;20207;-68
2021/05/05 02:15:19;;;;;;;2.47;1.77;;;9.00;99.90;;;;;;5026146;28;20442;-68
2021/05/05 02:17:46;;;;;;;4.60;1.83;;;9.10;99.90;;;;;;5025320;28;20247;-69
2021/05/05 02:20:13;;;;;;;9.93;2.40;;;9.00;99.90;;;;;;5027205;28;20840;-70
2021/05/05 02:22:39;;;;;;;4.37;1.70;;;9.00;99.90;;;;;;5027642;28;20482;-68
2021/05/05 02:25:07;;;;;;;4.60;2.00;;;8.90;99.90;;;;;;5026830;28;20480;-68
2021/05/05 02:27:35;;;;;;;3.57;1.90;;;8.90;99.90;;;;;;5024736;28;20424;-69
2021/05/05 02:30:00;;;;;;;4.40;1.80;;;8.90;99.90;;;;;;5025997;28;20442;-68
2021/05/05 02:32:26;;;;;;;3.50;2.07;;;8.90;99.90;;;;;;5024666;28;21172;-69
2021/05/05 02:34:56;;;;;;;3.40;2.23;;;8.90;99.90;;;;;;5023237;28;20245;-69
2021/05/05 02:37:21;;;;;;;2.87;2.37;;;8.80;99.90;;;;;;5027616;28;20185;-70
2021/05/05 02:39:48;;;;;;;3.50;1.80;;;8.90;99.90;;;;;;5025974;28;20911;-70
2021/05/05 02:42:16;;;;;;;3.50;1.77;;;8.90;99.90;;;;;;5037446;28;20462;-69
2021/05/05 02:44:44;;;;;;;2.63;1.50;;;8.90;99.90;;;;;;5040348;28;20922;-68
2021/05/05 02:47:10;;;;;;;1.93;1.70;;;8.80;99.90;;;;;;5033516;28;20546;-70
2021/05/05 02:49:36;;;;;;;2.13;1.70;;;8.80;99.90;;;;;;5029456;28;20448;-68
2021/05/05 02:52:03;;;;;;;4.17;2.20;;;8.80;99.90;;;;;;5029693;28;21273;-68
2021/05/05 02:54:29;;;;;;;3.60;2.27;;;8.80;99.90;;;;;;5025483;28;20216;-67
2021/05/05 02:56:56;;;;;;;7.53;1.60;;;8.80;99.90;;;;;;5029107;28;20439;-70
2021/05/05 02:59:22;;;;;;;2.33;1.73;;;8.70;99.90;;;;;;5024493;28;20564;-69
2021/05/05 03:01:47;;;;;;;4.87;1.60;;;8.70;99.90;;;;;;5025947;28;20546;-68
2021/05/05 03:04:13;;;;;;;4.30;2.00;;;8.70;99.90;;;;;;5027485;28;20558;-69
2021/05/05 03:06:38;;;;;;;4.10;2.23;;;8.70;99.90;;;;;;5022874;28;20559;-68
2021/05/05 03:09:05;;;;;;;2.87;1.97;;;8.70;99.90;;;;;;5025830;28;20196;-68
2021/05/05 03:11:31;;;;;;;2.53;1.90;;;8.80;99.90;;;;;;5025028;28;20196;-69
2021/05/05 03:13:57;;;;;;;4.10;1.90;;;8.70;99.90;;;;;;5024485;28;21008;-68
2021/05/05 03:16:23;;;;;;;2.93;2.10;;;8.70;99.90;;;;;;5027592;28;20441;-69
2021/05/05 03:18:51;;;;;;;6.47;2.30;;;8.70;99.90;;;;;;5026293;28;20622;-69
2021/05/05 03:21:17;;;;;;;3.90;3.20;;;8.70;99.90;;;;;;5025102;28;20435;-69
2021/05/05 03:23:43;;;;;;;2.50;1.90;;;8.70;99.90;;;;;;5025576;28;20978;-68
2021/05/05 03:26:09;;;;;;;5.73;1.77;;;8.70;99.90;;;;;;5030064;28;20571;-69
2021/05/05 03:28:35;;;;;;;2.13;1.90;;;8.70;99.90;;;;;;5029292;28;20191;-68
2021/05/05 03:31:00;;;;;;;2.10;1.80;;;8.60;99.90;;;;;;5023033;28;20203;-68
2021/05/05 03:33:26;;;;;;;3.47;2.23;;;8.70;99.90;;;;;;5027078;28;20461;-69
2021/05/05 03:35:52;;;;;;;3.97;2.20;;;8.70;99.90;;;;;;5023365;28;20564;-69
2021/05/05 03:38:17;;;;;;;3.03;2.30;;;8.80;99.90;;;;;;5030309;28;20196;-69
2021/05/05 03:40:43;;;;;;;2.87;1.97;;;8.70;99.90;;;;;;5030290;28;20602;-69
2021/05/05 03:43:08;;;;;;;3.70;1.80;;;8.80;99.90;;;;;;5025515;28;20219;-68
2021/05/05 03:45:34;;;;;;;3.93;2.20;;;8.80;99.90;;;;;;5027944;28;20193;-69
2021/05/05 03:48:00;;;;;;;2.63;2.00;;;8.80;99.90;;;;;;5028926;28;20690;-67
2021/05/05 03:50:26;;;;;;;4.30;2.80;;;8.80;99.90;;;;;;5027114;28;20632;-68
2021/05/05 03:52:52;;;;;;;4.23;2.00;;;8.80;99.90;;;;;;5025662;28;20276;-67
2021/05/05 03:55:19;;;;;;;2.20;2.00;;;8.80;99.90;;;;;;5021389;28;20551;-69
2021/05/05 03:57:45;;;;;;;4.33;2.33;;;8.80;99.90;;;;;;5024182;28;20441;-68
2021/05/05 04:00:11;;;;;;;2.67;2.10;;;8.80;99.90;;;;;;5027056;28;20437;-67
2021/05/05 04:02:37;;;;;;;2.50;2.00;;;8.70;99.90;;;;;;5025813;28;20206;-69
2021/05/05 04:05:03;;;;;;;4.03;1.97;;;8.70;99.90;;;;;;5025999;28;20955;-67
2021/05/05 04:07:29;;;;;;;3.20;2.17;;;8.80;99.90;;;;;;5029843;28;20268;-69
2021/05/05 04:09:55;;;;;;;2.20;2.00;;;8.70;99.90;;;;;;5028194;28;20525;-69
2021/05/05 04:12:21;;;;;;;2.10;1.80;;;8.70;99.90;;;;;;5027921;28;20239;-69
2021/05/05 04:14:47;;;;;;;6.20;2.40;;;8.70;99.90;;;;;;5024904;28;20439;-69
2021/05/05 04:17:12;;;;;;;4.20;2.00;;;8.70;99.90;;;;;;5026923;28;20646;-69
2021/05/05 04:19:40;;;;;;;3.00;2.30;;;8.60;99.90;;;;;;5027883;28;20180;-69
2021/05/05 04:22:05;;;;;;;5.50;2.40;;;8.60;99.90;;;;;;5029786;28;20206;-70
2021/05/05 04:24:31;;;;;;;2.43;2.20;;;8.60;99.90;;;;;;5021806;28;20477;-70
2021/05/05 04:26:58;;;;;;;3.70;1.73;;;8.60;99.90;;;;;;5027886;28;20183;-70
2021/05/05 04:29:23;;;;;;;3.77;2.00;;;8.60;99.90;;;;;;5025685;28;20442;-70
2021/05/05 04:31:51;;;;;;;4.70;2.13;;;8.70;99.90;;;;;;5025444;28;20454;-69
2021/05/05 04:34:18;;;;;;;2.40;2.20;;;8.60;99.90;;;;;;5024699;28;20245;-68
2021/05/05 04:36:43;;;;;;;2.00;1.80;;;8.70;99.90;;;;;;5026042;28;20444;-69
2021/05/05 04:39:09;;;;;;;2.90;2.33;;;8.70;99.90;;;;;;5024737;28;20958;-68
2021/05/05 04:41:35;;;;;;;2.33;2.13;;;8.70;99.90;;;;;;5028999;28;20236;-68
2021/05/05 04:44:01;;;;;;;3.67;2.00;;;8.70;99.90;;;;;;5024491;28;20208;-68
2021/05/05 04:46:26;;;;;;;2.93;2.00;;;8.70;99.90;;;;;;5019758;28;20442;-68
2021/05/05 04:48:52;;;;;;;3.00;2.03;;;8.70;99.90;;;;;;5029049;28;20504;-68
2021/05/05 04:51:17;;;;;;;4.87;2.20;;;8.80;99.90;;;;;;5026954;28;20180;-68
2021/05/05 04:53:44;;;;;;;2.93;2.10;;;8.70;99.90;;;;;;5022925;28;20191;-68
2021/05/05 04:56:09;;;;;;;2.40;1.90;;;8.70;99.90;;;;;;5025626;28;20211;-68
2021/05/05 04:58:36;;;;;;;2.90;1.77;;;8.80;99.90;;;;;;5024116;28;20470;-68
2021/05/05 05:01:02;;;;;;;7.03;2.20;;;8.80;99.90;;;;;;5028928;28;20212;-69
2021/05/05 05:03:27;;;;;;;4.80;2.37;;;8.70;99.90;;;;;;5028116;28;20819;-69
2021/05/05 05:05:53;;;;;;;2.50;2.20;;;8.70;99.90;;;;;;5028438;28;20433;-69
2021/05/05 05:08:19;;;;;;;2.43;1.97;;;8.70;99.90;;;;;;5027570;28;20216;-69
2021/05/05 05:10:44;;;;;;;2.13;1.93;;;8.70;99.90;;;;;;5029555;28;20206;-68
2021/05/05 05:13:10;;;;;;;4.00;2.20;;;8.80;99.90;;;;;;5028713;28;20691;-68
2021/05/05 05:15:36;;;;;;;1.70;1.60;;;8.80;99.90;;;;;;5025869;28;20195;-68
2021/05/05 05:18:01;;;;;;;2.83;2.30;;;8.80;99.90;;;;;;5027837;28;20172;-69
2021/05/05 05:20:27;;;;;;;3.90;2.20;;;8.90;99.90;;;;;;5022579;28;20180;-70
2021/05/05 05:22:55;;;;;;;2.77;2.00;;;9.00;99.90;;;;;;5024991;28;20216;-69
2021/05/05 05:25:25;;;;;;;6.47;3.10;;;9.00;99.90;;;;;;5023550;28;20188;-68
2021/05/05 05:27:51;;;;;;;4.40;2.70;;;9.00;99.90;;;;;;5018639;28;20429;-68
2021/05/05 05:30:18;;;;;;;4.50;2.60;;;9.00;99.90;;;;;;5017240;28;20435;-68
2021/05/05 05:32:43;;;;;;;2.77;2.10;;;9.00;99.90;;;;;;5022716;28;20461;-68
2021/05/05 05:35:10;;;;;;;3.00;2.10;;;9.10;99.90;;;;;;5022492;28;20428;-68
2021/05/05 05:37:35;;;;;;;2.63;2.30;;;9.00;99.90;;;;;;5020291;28;20427;-68
2021/05/05 05:40:01;;;;;;;2.90;2.60;;;9.10;99.90;;;;;;5024904;28;20431;-69
2021/05/05 05:42:27;;;;;;;3.47;2.40;;;9.10;99.90;;;;;;5020425;28;20228;-69
2021/05/05 05:44:52;;;;;;;2.90;2.63;;;9.10;99.90;;;;;;5022509;28;20181;-69
2021/05/05 05:47:18;;;;;;;5.40;2.43;;;9.10;99.90;;;;;;5022125;28;20264;-68
2021/05/05 05:49:43;;;;;;;6.77;2.77;;;9.10;99.90;;;;;;5021280;28;20185;-68
2021/05/05 05:52:09;;;;;;;2.50;2.20;;;9.10;99.90;;;;;;5029359;28;20663;-69
2021/05/05 05:54:35;;;;;;;4.03;2.90;;;9.10;99.90;;;;;;5029069;28;20263;-69
2021/05/05 05:57:01;;;;;;;5.33;2.73;;;9.10;99.90;;;;;;5021968;28;20577;-70
2021/05/05 05:59:26;;;;;;;3.07;2.60;;;9.20;99.90;;;;;;5023080;28;20179;-69
2021/05/05 06:01:52;;;;;;;4.27;2.33;;;9.30;99.90;;;;;;5027137;28;20294;-69
2021/05/05 06:04:18;;;;;;;4.57;2.13;;;9.30;99.90;;;;;;5023202;28;20613;-70
2021/05/05 06:06:44;;;;;;;3.87;2.30;;;9.40;99.90;;;;;;5025841;28;20192;-69
2021/05/05 06:09:10;;;;;;;2.23;2.03;;;9.30;99.90;;;;;;5026534;28;20552;-68
2021/05/05 06:11:36;;;;;;;6.40;2.63;;;9.30;99.90;;;;;;5013595;28;20452;-69
2021/05/05 06:14:02;;;;;;;2.67;2.07;;;9.40;99.90;;;;;;5026243;28;20929;-69
2021/05/05 06:16:28;;;;;;;5.27;3.67;;;9.30;99.90;;;;;;5024273;28;20189;-70
2021/05/05 06:18:54;;;;;;;13.47;2.50;;;9.40;99.90;;;;;;5032125;28;20436;-70
2021/05/05 06:21:20;;;;;;;6.07;2.63;;;9.40;99.90;;;;;;5023109;28;20203;-69
2021/05/05 06:23:45;;;;;;;4.13;2.47;;;9.50;99.90;;;;;;5022944;28;20455;-69
2021/05/05 06:26:11;;;;;;;4.37;2.43;;;9.60;99.90;;;;;;5013626;28;20440;-70
2021/05/05 06:28:36;;;;;;;4.27;2.30;;;9.60;99.90;;;;;;5020814;28;20185;-69
2021/05/05 06:31:02;;;;;;;6.83;2.47;;;9.70;99.90;;;;;;5023060;28;20246;-71
2021/05/05 06:33:28;;;;;;;10.83;7.23;;;9.80;99.90;;;;;;5025355;28;20212;-69
2021/05/05 06:35:54;;;;;;;6.17;2.80;;;9.70;99.90;;;;;;5017277;28;20199;-69
2021/05/05 06:38:19;;;;;;;3.77;2.93;;;9.70;99.90;;;;;;5022590;28;20447;-69
2021/05/05 06:40:45;;;;;;;9.60;2.83;;;9.70;99.90;;;;;;5025270;28;20595;-70
2021/05/05 06:43:11;;;;;;;2.60;2.20;;;9.80;99.90;;;;;;5024030;28;20212;-69
2021/05/05 06:45:37;;;;;;;3.10;2.23;;;9.80;99.90;;;;;;5008394;28;20191;-68
2021/05/05 06:48:02;;;;;;;6.13;2.80;;;10.00;99.90;;;;;;5019175;28;20181;-70
2021/05/05 06:50:28;;;;;;;3.27;2.30;;;10.00;99.90;;;;;;5021354;28;20203;-68
2021/05/05 06:52:57;;;;;;;6.60;2.50;;;9.90;99.90;;;;;;5022618;28;20973;-69
2021/05/05 06:55:23;;;;;;;6.73;3.07;;;9.90;99.90;;;;;;5025718;28;20186;-68
2021/05/05 06:57:50;;;;;;;3.80;3.30;;;9.80;99.90;;;;;;5018940;28;20428;-69
2021/05/05 07:00:17;;;;;;;5.60;3.30;;;9.90;99.90;;;;;;5016891;28;20443;-67
2021/05/05 07:02:42;;;;;;;5.00;3.23;;;9.80;99.90;;;;;;5014937;28;20462;-68
2021/05/05 07:05:09;;;;;;;11.57;4.30;;;9.70;99.90;;;;;;5020058;28;20431;-68
2021/05/05 07:07:35;;;;;;;5.43;2.57;;;9.80;99.90;;;;;;5019863;28;20233;-68
2021/05/05 07:10:00;;;;;;;10.23;3.30;;;9.80;99.90;;;;;;5018631;28;21143;-69
2021/05/05 07:12:26;;;;;;;9.40;3.77;;;9.80;99.90;;;;;;5016486;28;20208;-70
2021/05/05 07:14:53;;;;;;;5.20;2.57;;;9.90;99.90;;;;;;5016020;28;20191;-70
2021/05/05 07:17:19;;;;;;;3.60;2.63;;;10.10;99.90;;;;;;5021270;28;20651;-69
2021/05/05 07:19:44;;;;;;;6.77;3.27;;;10.10;99.90;;;;;;5018897;28;20441;-70
2021/05/05 07:22:10;;;;;;;7.17;3.27;;;10.00;99.90;;;;;;5017919;28;20204;-67
2021/05/05 07:24:37;;;;;;;6.37;2.60;;;10.00;99.90;;;;;;5011560;28;20213;-68
2021/05/05 07:27:03;;;;;;;5.57;2.90;;;10.10;99.90;;;;;;5018681;28;20234;-70
2021/05/05 07:29:28;;;;;;;6.80;2.90;;;10.10;99.90;;;;;;5018526;28;20435;-69
2021/05/05 07:31:54;;;;;;;4.77;3.30;;;10.10;99.90;;;;;;5015695;28;20223;-68
2021/05/05 07:34:21;;;;;;;3.97;2.60;;;10.00;99.90;;;;;;5019806;28;20581;-70
2021/05/05 07:36:48;;;;;;;6.43;3.37;;;10.10;99.90;;;;;;5019131;28;20195;-66
2021/05/05 07:39:48;;;;;;;10.07;3.43;;;10.20;99.90;;;;;;5024580;28;20447;-67
2021/05/05 07:47:45;;;;;;;5.80;3.00;;;10.50;99.90;;;;;;5015832;28;20446;-68
2021/05/05 07:50:12;;;;;;;11.13;4.60;;;10.50;99.90;;;;;;5019482;28;20459;-68
2021/05/05 07:52:39;;;;;;;4.37;3.20;;;10.60;99.90;;;;;;5016808;28;20574;-69
2021/05/05 07:55:09;;;;;;;8.00;3.13;;;10.70;99.90;;;;;;5020178;28;20443;-69
2021/05/05 07:57:35;;;;;;;2.70;2.40;;;10.70;99.90;;;;;;5021125;28;20472;-69
2021/05/05 08:00:01;;;;;;;4.47;3.53;;;10.80;99.90;;;;;;5015492;28;20941;-69
2021/05/05 08:02:27;;;;;;;4.73;3.20;;;10.70;99.90;;;;;;5017029;28;20463;-70
2021/05/05 08:04:52;;;;;;;4.50;3.00;;;10.60;99.90;;;;;;5014856;28;20507;-69
2021/05/05 08:07:19;;;;;;;8.17;3.50;;;10.80;99.90;;;;;;5022620;28;20196;-69
2021/05/05 08:09:45;;;;;;;10.40;3.77;;;10.90;99.90;;;;;;5016784;28;20542;-70
2021/05/05 08:12:12;;;;;;;6.30;3.47;;;10.80;99.90;;;;;;5015564;28;21003;-71
2021/05/05 08:14:39;;;;;;;3.67;3.20;;;10.80;99.90;;;;;;5021698;28;20446;-68
2021/05/05 08:17:06;;;;;;;8.83;2.73;;;10.90;99.90;;;;;;5016173;28;20451;-70
2021/05/05 08:19:32;;;;;;;13.13;3.60;;;10.90;99.90;;;;;;5017211;28;20447;-70
2021/05/05 08:21:58;;;;;;;4.20;3.03;;;10.80;99.90;;;;;;5012602;28;20463;-69
2021/05/05 08:24:23;;;;;;;6.70;3.70;;;10.80;99.90;;;;;;5013123;28;20291;-70
2021/05/05 08:26:49;;;;;;;4.03;3.07;;;10.80;99.90;;;;;;5018100;28;20197;-69
2021/05/05 08:29:15;;;;;;;4.67;2.97;;;10.80;99.90;;;;;;5014375;28;20617;-71
2021/05/05 08:31:40;;;;;;;5.50;4.20;;;10.80;99.90;;;;;;5017793;28;20208;-70
2021/05/05 08:34:06;;;;;;;5.27;3.77;;;10.90;99.90;;;;;;5017450;28;20196;-70
2021/05/05 08:36:32;;;;;;;5.63;4.07;;;11.10;99.90;;;;;;5018004;28;20260;-70
2021/05/05 08:38:58;;;;;;;5.43;4.00;;;11.20;99.90;;;;;;5020553;28;20609;-69
2021/05/05 08:41:24;;;;;;;12.13;4.00;;;11.40;99.90;;;;;;5017521;28;20239;-69
2021/05/05 08:43:50;;;;;;;10.80;3.60;;;11.30;99.90;;;;;;5021366;28;20205;-71
2021/05/05 08:46:17;;;;;;;6.63;3.47;;;11.40;99.90;;;;;;5016409;28;20446;-73
2021/05/05 08:48:44;;;;;;;4.13;3.73;;;11.40;99.90;;;;;;5015395;28;20537;-70
2021/05/05 08:51:12;;;;;;;5.63;3.60;;;11.30;99.90;;;;;;5017475;28;20434;-70
2021/05/05 08:53:40;;;;;;;9.57;3.50;;;11.20;99.90;;;;;;5016946;28;20792;-70
2021/05/05 08:56:05;;;;;;;3.50;3.13;;;11.00;99.90;;;;;;5020213;28;20461;-70
2021/05/05 08:58:31;;;;;;;6.23;3.30;;;11.10;99.90;;;;;;5017843;28;20442;-70
2021/05/05 09:00:57;;;;;;;8.93;3.80;;;11.20;99.90;;;;;;5024957;28;20294;-71
2021/05/05 09:03:33;;;;;;;5.67;3.67;;;11.40;99.90;;;;;;5023465;28;20215;-72
2021/05/05 09:05:59;;;;;;;4.13;3.80;;;11.70;99.90;;;;;;5023857;28;20180;-70
2021/05/05 09:08:27;;;;;;;5.03;3.50;;;11.80;99.90;;;;;;5022363;28;20813;-70
2021/05/05 09:11:04;;;;;;;5.90;3.80;;;12.00;99.90;;;;;;5016347;28;20205;-70
2021/05/05 09:13:47;;;;;;;6.27;4.20;;;11.70;99.90;;;;;;5019625;28;20455;-71
2021/05/05 09:16:15;;;;;;;8.50;4.47;;;11.70;99.90;;;;;;5019495;28;20521;-70
2021/05/05 09:19:08;;;;;;;9.27;4.80;;;11.90;99.90;;;;;;5019473;28;20860;-69
2021/05/05 09:21:37;;;;;;;6.13;3.70;;;12.10;99.90;;;;;;5016603;28;20458;-70
2021/05/05 09:24:28;;;;;;;4.17;3.60;;;12.40;99.90;;;;;;5016406;28;20540;-69
2021/05/05 09:27:04;;;;;;;8.90;4.23;;;12.40;99.90;;;;;;5019979;28;20439;-70
2021/05/05 09:29:49;;;;;;;5.33;3.50;;;12.00;99.90;;;;;;5017154;28;20438;-71
2021/05/05 09:32:20;;;;;;;5.33;3.57;;;12.00;99.90;;;;;;5017235;28;20470;-69
2021/05/05 09:34:58;;;;;;;3.40;3.17;;;12.10;99.90;;;;;;5018541;28;20446;-70
2021/05/05 09:37:24;;;;;;;9.03;4.03;;;12.20;99.90;;;;;;5019374;28;20473;-71
2021/05/05 09:40:05;;;;;;;4.60;4.00;;;12.20;99.90;;;;;;5018799;28;20444;-67
2021/05/05 09:42:34;;;;;;;5.03;3.40;;;12.10;99.90;;;;;;5020569;28;20482;-68
2021/05/05 09:45:04;;;;;;;4.10;3.70;;;12.00;99.90;;;;;;5016966;28;20443;-68
2021/05/05 09:47:57;;;;;;;5.43;3.93;;;12.00;99.90;;;;;;5021678;28;20423;-70
2021/05/05 09:50:44;;;;;;;4.10;3.53;;;11.70;99.90;;;;;;5023325;28;20825;-70
2021/05/05 09:53:16;;;;;;;3.40;3.10;;;11.40;99.90;;;;;;5014135;28;20504;-70
2021/05/05 09:55:46;;;;;;;4.03;2.77;;;10.90;99.90;;;;;;5029475;28;20440;-70
2021/05/05 09:58:32;;;;;;;3.60;2.70;;;10.00;99.90;;;;;;5032819;28;20450;-68
2021/05/05 10:01:10;;;;;;;2.80;2.60;;;8.90;99.90;;;;;;5028651;28;20568;-69
2021/05/05 10:03:52;;;;;;;2.77;2.53;;;8.10;99.90;;;;;;5018577;28;20883;-71
2021/05/05 10:06:21;;;;;;;2.70;2.50;;;7.70;99.90;;;;;;5022946;28;20418;-70
2021/05/05 10:09:05;;;;;;;2.60;2.40;;;7.30;99.90;;;;;;5016704;28;20438;-71
2021/05/05 10:11:32;;;;;;;3.83;3.43;;;7.20;99.90;;;;;;5021042;28;20449;-70
2021/05/05 10:14:07;;;;;;;3.37;2.17;;;7.10;99.90;;;;;;5014487;28;20477;-69
2021/05/05 10:16:36;;;;;;;3.20;2.30;;;7.10;99.90;;;;;;5019327;28;20970;-68
2021/05/05 10:19:06;;;;;;;4.13;2.37;;;7.10;99.90;;;;;;5021710;28;20427;-71
2021/05/05 10:21:34;;;;;;;3.40;2.07;;;7.20;99.90;;;;;;5022498;28;20459;-70
2021/05/05 10:24:00;;;;;;;2.80;2.50;;;7.30;99.90;;;;;;5027383;28;20831;-70
2021/05/05 10:26:27;;;;;;;6.23;3.07;;;7.60;99.90;;;;;;5020748;28;20611;-68
2021/05/05 10:28:54;;;;;;;3.13;2.30;;;7.90;99.90;;;;;;5019007;28;20442;-70
2021/05/05 10:31:27;;;;;;;4.33;2.40;;;8.40;99.90;;;;;;5021329;28;20431;-69
2021/05/05 10:33:57;;;;;;;3.33;2.70;;;8.80;99.90;;;;;;5023365;28;20442;-70
2021/05/05 10:36:40;;;;;;;3.73;2.20;;;8.90;99.90;;;;;;5023057;28;20944;-70
2021/05/05 10:39:11;;;;;;;2.80;2.13;;;9.10;99.90;;;;;;5021968;28;20556;-68
2021/05/05 10:41:40;;;;;;;7.27;2.90;;;9.10;99.90;;;;;;5016199;28;20477;-71
2021/05/05 10:44:06;;;;;;;3.00;2.53;;;9.30;99.90;;;;;;5038311;28;20476;-70
2021/05/05 10:46:34;;;;;;;2.83;2.63;;;9.60;99.90;;;;;;5029040;28;20482;-69
2021/05/05 10:49:10;;;;;;;2.30;2.10;;;10.00;99.90;;;;;;5024916;28;20208;-69
2021/05/05 10:51:45;;;;;;;3.40;2.23;;;10.60;99.90;;;;;;5013241;28;20511;-68
2021/05/05 10:54:12;;;;;;;5.40;2.90;;;11.20;99.90;;;;;;5024473;28;20449;-69
2021/05/05 10:56:38;;;;;;;8.83;3.90;;;12.30;99.90;;;;;;5021513;28;20539;-70
2021/05/05 10:59:07;;;;;;;16.73;6.27;;;13.30;99.90;;;;;;5020671;28;21127;-70
2021/05/05 11:01:43;;;;;;;5.33;3.20;;;14.60;99.90;;;;;;5025441;28;20613;-72
2021/05/05 11:04:14;;;;;;;8.30;3.37;;;14.50;99.90;;;;;;5020045;28;20458;-69
2021/05/05 11:06:44;;;;;;;3.70;2.87;;;14.00;99.90;;;;;;5023415;28;20851;-70
2021/05/05 11:09:10;;;;;;;5.30;2.93;;;12.90;99.90;;;;;;5020779;28;20450;-70
2021/05/05 11:11:56;;;;;;;3.73;3.00;;;12.70;99.90;;;;;;5025879;28;20833;-69
2021/05/05 11:14:27;;;;;;;6.07;3.73;;;14.60;99.90;;;;;;5018165;28;20204;-69
2021/05/05 11:19:37;;;;;;;4.80;3.80;;;16.90;99.90;;;;;;5023062;28;20825;-70
2021/05/05 11:22:07;;;;;;;4.73;4.30;;;18.50;99.90;;;;;;5023661;28;20748;-73
2021/05/05 11:24:38;;;;;;;4.07;3.60;;;17.00;99.90;;;;;;5024089;28;20645;-71
2021/05/05 11:27:06;;;;;;;4.20;3.60;;;15.90;99.90;;;;;;5022228;28;20427;-68
2021/05/05 11:29:40;;;;;;;4.10;3.37;;;16.60;99.90;;;;;;5023347;28;20803;-67
2021/05/05 11:32:22;;;;;;;5.20;3.70;;;15.50;99.90;;;;;;5032615;28;20545;-70
2021/05/05 11:34:48;;;;;;;5.43;3.73;;;14.30;99.90;;;;;;5026438;28;20426;-71
2021/05/05 11:37:14;;;;;;;4.53;3.43;;;14.90;99.90;;;;;;5021422;28;20438;-69
2021/05/05 11:39:45;;;;;;;3.83;3.53;;;14.70;99.90;;;;;;5023040;28;20447;-71
2021/05/05 11:42:13;;;;;;;3.87;3.50;;;13.70;99.90;;;;;;5018996;28;20964;-71
2021/05/05 11:44:56;;;;;;;4.83;3.90;;;13.20;99.90;;;;;;5025230;28;20455;-70
2021/05/05 11:47:26;;;;;;;4.13;3.73;;;13.50;99.90;;;;;;5022953;28;20420;-70
2021/05/05 11:50:00;;;;;;;4.53;3.70;;;12.90;99.90;;;;;;5023902;28;20432;-70
2021/05/05 11:52:26;;;;;;;4.00;3.60;;;13.30;99.90;;;;;;5015634;28;20454;-68
2021/05/05 11:54:56;;;;;;;3.90;3.50;;;13.00;99.90;;;;;;5011687;28;20462;-70
2021/05/05 11:57:28;;;;;;;3.80;3.60;;;12.50;99.90;;;;;;5029142;28;20234;-70
2021/05/05 11:59:56;;;;;;;10.20;4.67;;;12.10;99.90;;;;;;5020524;28;20443;-70
2021/05/05 12:02:22;;;;;;;5.63;4.20;;;11.90;99.90;;;;;;5021257;28;20480;-68
2021/05/05 12:04:50;;;;;;;5.53;2.90;;;11.60;99.90;;;;;;5021253;28;20475;-69
2021/05/05 12:07:18;;;;;;;3.13;2.93;;;11.50;99.90;;;;;;5020190;28;20435;-70
2021/05/05 12:09:45;;;;;;;2.83;2.63;;;11.50;99.90;;;;;;5014931;28;21021;-71
2021/05/05 12:12:30;;;;;;;3.10;2.90;;;11.40;99.90;;;;;;5013232;28;20553;-68
2021/05/05 12:15:04;;;;;;;3.30;2.97;;;11.30;99.90;;;;;;5016109;28;20462;-69
2021/05/05 12:17:34;;;;;;;3.20;3.00;;;11.10;99.90;;;;;;5021860;28;20443;-70
2021/05/05 12:20:09;;;;;;;3.27;3.07;;;11.20;99.90;;;;;;5022632;28;20439;-70
2021/05/05 12:22:37;;;;;;;3.17;2.87;;;11.60;99.90;;;;;;5025305;28;20468;-68
2021/05/05 12:25:15;;;;;;;3.30;3.10;;;12.10;99.90;;;;;;5009118;28;20474;-70
2021/05/05 12:28:01;;;;;;;3.50;3.30;;;11.90;99.90;;;;;;5023894;28;20774;-70
2021/05/05 12:30:48;;;;;;;4.43;4.03;;;11.80;99.90;;;;;;5021404;28;20963;-71
2021/05/05 12:33:16;;;;;;;3.17;2.90;;;11.80;99.90;;;;;;5021634;28;20462;-68
2021/05/05 12:35:43;;;;;;;3.50;3.20;;;12.00;99.90;;;;;;5018419;28;20443;-69
2021/05/05 12:38:11;;;;;;;2.90;2.70;;;12.20;99.90;;;;;;5023393;28;20469;-70
2021/05/05 12:40:38;;;;;;;3.10;2.90;;;12.30;99.90;;;;;;5023076;28;20515;-68
2021/05/05 12:43:14;;;;;;;6.30;3.10;;;12.20;99.90;;;;;;5041555;28;20468;-68
2021/05/05 12:45:40;;;;;;;3.63;3.30;;;12.10;99.90;;;;;;5025735;28;20455;-72
2021/05/05 12:48:07;;;;;;;3.47;3.20;;;11.90;99.90;;;;;;5024355;28;20808;-68
2021/05/05 12:50:41;;;;;;;3.83;3.10;;;11.80;99.90;;;;;;5022157;28;21141;-69
2021/05/05 12:53:08;;;;;;;4.47;3.93;;;11.70;99.90;;;;;;5022429;28;20458;-68
2021/05/05 12:55:38;;;;;;;3.70;3.40;;;11.60;99.90;;;;;;5026043;28;20443;-71
2021/05/05 12:58:16;;;;;;;5.10;3.40;;;11.40;99.90;;;;;;5024096;28;20458;-70
2021/05/05 13:00:44;;;;;;;2.90;2.60;;;11.10;99.90;;;;;;5019093;28;20438;-69
2021/05/05 13:03:20;;;;;;;3.30;3.10;;;10.80;99.90;;;;;;5018514;28;20467;-68
2021/05/05 13:05:58;;;;;;;2.80;2.60;;;11.50;99.90;;;;;;5018855;28;20454;-70